sensor_id;sensor_type;location;lat;lon;timestamp;P1;durP1;ratioP1;P2;durP2;ratioP2
11016;SDS011;54687;50.800;6.772;2023-02-28T00:00:43;3.80;;;3.30;;
11016;SDS011;54687;50.800;6.772;2023-02-28T00:03:11;4.73;;;3.63;;
11016;SDS011;54687;50.800;6.772;2023-02-28T00:05:38;5.37;;;3.53;;
11016;SDS011;54687;50.800;6.772;2023-02-28T00:08:05;5.40;;;3.40;;
11016;SDS011;54687;50.800;6.772;2023-02-28T00:10:31;3.97;;;3.50;;
11016;SDS011;54687;50.800;6.772;2023-02-28T00:12:59;4.97;;;3.63;;
11016;SDS011;54687;50.800;6.772;2023-02-28T00:15:27;4.43;;;3.63;;
11016;SDS011;54687;50.800;6.772;2023-02-28T00:17:54;4.63;;;3.70;;
11016;SDS011;54687;50.800;6.772;2023-02-28T00:20:22;4.73;;;3.37;;
11016;SDS011;54687;50.800;6.772;2023-02-28T00:22:50;5.03;;;3.77;;
11016;SDS011;54687;50.800;6.772;2023-02-28T00:25:18;4.50;;;3.30;;
11016;SDS011;54687;50.800;6.772;2023-02-28T00:27:47;4.07;;;3.50;;
11016;SDS011;54687;50.800;6.772;2023-02-28T00:30:14;3.70;;;3.37;;
11016;SDS011;54687;50.800;6.772;2023-02-28T00:32:42;4.17;;;3.53;;
11016;SDS011;54687;50.800;6.772;2023-02-28T00:35:10;4.10;;;3.40;;
11016;SDS011;54687;50.800;6.772;2023-02-28T00:37:38;5.50;;;3.77;;
11016;SDS011;54687;50.800;6.772;2023-02-28T00:40:05;5.10;;;3.67;;
11016;SDS011;54687;50.800;6.772;2023-02-28T00:42:33;3.60;;;3.27;;
11016;SDS011;54687;50.800;6.772;2023-02-28T00:45:00;4.57;;;3.47;;
11016;SDS011;54687;50.800;6.772;2023-02-28T00:47:28;4.40;;;3.33;;
11016;SDS011;54687;50.800;6.772;2023-02-28T00:49:55;5.47;;;3.70;;
11016;SDS011;54687;50.800;6.772;2023-02-28T00:52:22;5.07;;;3.97;;
11016;SDS011;54687;50.800;6.772;2023-02-28T00:54:49;4.23;;;3.20;;
11016;SDS011;54687;50.800;6.772;2023-02-28T00:57:16;5.07;;;4.10;;
11016;SDS011;54687;50.800;6.772;2023-02-28T00:59:43;5.70;;;3.97;;
11016;SDS011;54687;50.800;6.772;2023-02-28T01:02:09;6.10;;;4.20;;
11016;SDS011;54687;50.800;6.772;2023-02-28T01:04:36;4.27;;;3.30;;
11016;SDS011;54687;50.800;6.772;2023-02-28T01:07:02;3.73;;;3.40;;
11016;SDS011;54687;50.800;6.772;2023-02-28T01:09:29;3.73;;;3.27;;
11016;SDS011;54687;50.800;6.772;2023-02-28T01:11:57;3.90;;;3.50;;
11016;SDS011;54687;50.800;6.772;2023-02-28T01:14:24;4.10;;;3.47;;
11016;SDS011;54687;50.800;6.772;2023-02-28T01:16:50;4.53;;;3.50;;
11016;SDS011;54687;50.800;6.772;2023-02-28T01:19:17;5.20;;;3.37;;
11016;SDS011;54687;50.800;6.772;2023-02-28T01:21:44;4.03;;;3.50;;
11016;SDS011;54687;50.800;6.772;2023-02-28T01:24:10;5.33;;;3.50;;
11016;SDS011;54687;50.800;6.772;2023-02-28T01:26:37;4.43;;;3.43;;
11016;SDS011;54687;50.800;6.772;2023-02-28T01:29:05;5.03;;;3.60;;
11016;SDS011;54687;50.800;6.772;2023-02-28T01:31:31;4.57;;;3.77;;
11016;SDS011;54687;50.800;6.772;2023-02-28T01:33:58;5.50;;;3.57;;
11016;SDS011;54687;50.800;6.772;2023-02-28T01:36:25;4.23;;;3.23;;
11016;SDS011;54687;50.800;6.772;2023-02-28T01:38:52;3.73;;;2.90;;
11016;SDS011;54687;50.800;6.772;2023-02-28T01:41:19;4.33;;;3.60;;
11016;SDS011;54687;50.800;6.772;2023-02-28T01:43:58;4.00;;;3.13;;
11016;SDS011;54687;50.800;6.772;2023-02-28T01:46:30;4.30;;;3.47;;
11016;SDS011;54687;50.800;6.772;2023-02-28T01:48:59;4.63;;;3.33;;
11016;SDS011;54687;50.800;6.772;2023-02-28T01:51:31;4.40;;;3.67;;
11016;SDS011;54687;50.800;6.772;2023-02-28T01:54:04;4.10;;;3.70;;
11016;SDS011;54687;50.800;6.772;2023-02-28T01:56:38;4.00;;;3.63;;
11016;SDS011;54687;50.800;6.772;2023-02-28T01:59:08;6.50;;;4.23;;
11016;SDS011;54687;50.800;6.772;2023-02-28T02:01:37;5.60;;;4.20;;
11016;SDS011;54687;50.800;6.772;2023-02-28T02:04:03;5.30;;;4.20;;
11016;SDS011;54687;50.800;6.772;2023-02-28T02:06:34;3.70;;;3.40;;
11016;SDS011;54687;50.800;6.772;2023-02-28T02:09:04;4.37;;;3.80;;
11016;SDS011;54687;50.800;6.772;2023-02-28T02:11:31;5.60;;;4.10;;
11016;SDS011;54687;50.800;6.772;2023-02-28T02:14:03;4.60;;;3.87;;
11016;SDS011;54687;50.800;6.772;2023-02-28T02:16:58;4.60;;;3.50;;
11016;SDS011;54687;50.800;6.772;2023-02-28T02:19:41;4.97;;;3.57;;
11016;SDS011;54687;50.800;6.772;2023-02-28T02:22:26;4.97;;;3.47;;
11016;SDS011;54687;50.800;6.772;2023-02-28T02:25:16;3.93;;;3.20;;
11016;SDS011;54687;50.800;6.772;2023-02-28T02:27:58;3.57;;;3.27;;
11016;SDS011;54687;50.800;6.772;2023-02-28T02:30:45;6.23;;;3.90;;
11016;SDS011;54687;50.800;6.772;2023-02-28T02:36:26;4.53;;;3.90;;
11016;SDS011;54687;50.800;6.772;2023-02-28T02:38:57;4.63;;;3.70;;
11016;SDS011;54687;50.800;6.772;2023-02-28T02:41:34;4.50;;;3.10;;
11016;SDS011;54687;50.800;6.772;2023-02-28T02:44:04;3.57;;;3.03;;
11016;SDS011;54687;50.800;6.772;2023-02-28T02:46:33;4.87;;;3.57;;
11016;SDS011;54687;50.800;6.772;2023-02-28T02:49:04;3.77;;;3.20;;
11016;SDS011;54687;50.800;6.772;2023-02-28T02:51:33;3.77;;;3.37;;
11016;SDS011;54687;50.800;6.772;2023-02-28T02:54:03;3.60;;;3.30;;
11016;SDS011;54687;50.800;6.772;2023-02-28T02:56:34;3.47;;;3.17;;
11016;SDS011;54687;50.800;6.772;2023-02-28T02:59:03;5.53;;;3.50;;
11016;SDS011;54687;50.800;6.772;2023-02-28T03:01:34;4.63;;;3.47;;
11016;SDS011;54687;50.800;6.772;2023-02-28T03:04:03;3.50;;;3.17;;
11016;SDS011;54687;50.800;6.772;2023-02-28T03:06:34;4.70;;;3.33;;
11016;SDS011;54687;50.800;6.772;2023-02-28T03:09:01;3.57;;;3.27;;
11016;SDS011;54687;50.800;6.772;2023-02-28T03:11:29;4.67;;;3.30;;
11016;SDS011;54687;50.800;6.772;2023-02-28T03:14:00;4.13;;;3.37;;
11016;SDS011;54687;50.800;6.772;2023-02-28T03:16:45;4.20;;;3.50;;
11016;SDS011;54687;50.800;6.772;2023-02-28T03:19:28;3.73;;;3.40;;
11016;SDS011;54687;50.800;6.772;2023-02-28T03:22:06;3.93;;;3.63;;
11016;SDS011;54687;50.800;6.772;2023-02-28T03:24:43;4.17;;;3.63;;
11016;SDS011;54687;50.800;6.772;2023-02-28T03:27:17;6.30;;;3.20;;
11016;SDS011;54687;50.800;6.772;2023-02-28T03:29:50;3.47;;;3.13;;
11016;SDS011;54687;50.800;6.772;2023-02-28T03:32:26;3.67;;;3.00;;
11016;SDS011;54687;50.800;6.772;2023-02-28T03:34:56;4.50;;;3.80;;
11016;SDS011;54687;50.800;6.772;2023-02-28T03:37:31;3.20;;;2.90;;
11016;SDS011;54687;50.800;6.772;2023-02-28T03:40:02;3.70;;;3.20;;
11016;SDS011;54687;50.800;6.772;2023-02-28T03:42:33;3.87;;;3.20;;
11016;SDS011;54687;50.800;6.772;2023-02-28T03:45:04;4.57;;;3.00;;
11016;SDS011;54687;50.800;6.772;2023-02-28T03:47:35;3.97;;;3.57;;
11016;SDS011;54687;50.800;6.772;2023-02-28T03:50:06;3.50;;;3.20;;
11016;SDS011;54687;50.800;6.772;2023-02-28T03:52:40;3.97;;;3.07;;
11016;SDS011;54687;50.800;6.772;2023-02-28T03:55:13;4.03;;;3.60;;
11016;SDS011;54687;50.800;6.772;2023-02-28T03:57:43;3.37;;;3.07;;
11016;SDS011;54687;50.800;6.772;2023-02-28T04:00:25;3.57;;;3.10;;
11016;SDS011;54687;50.800;6.772;2023-02-28T04:02:56;3.70;;;3.10;;
11016;SDS011;54687;50.800;6.772;2023-02-28T04:05:23;3.40;;;3.10;;
11016;SDS011;54687;50.800;6.772;2023-02-28T04:07:51;4.00;;;3.53;;
11016;SDS011;54687;50.800;6.772;2023-02-28T04:10:19;3.50;;;3.20;;
11016;SDS011;54687;50.800;6.772;2023-02-28T04:12:46;4.47;;;3.50;;
11016;SDS011;54687;50.800;6.772;2023-02-28T04:15:12;3.73;;;3.40;;
11016;SDS011;54687;50.800;6.772;2023-02-28T04:17:39;4.90;;;3.93;;
11016;SDS011;54687;50.800;6.772;2023-02-28T04:20:06;5.00;;;3.30;;
11016;SDS011;54687;50.800;6.772;2023-02-28T04:22:35;3.67;;;3.37;;
11016;SDS011;54687;50.800;6.772;2023-02-28T04:25:04;5.77;;;3.70;;
11016;SDS011;54687;50.800;6.772;2023-02-28T04:27:32;3.83;;;3.53;;
11016;SDS011;54687;50.800;6.772;2023-02-28T04:29:59;4.33;;;3.93;;
11016;SDS011;54687;50.800;6.772;2023-02-28T04:32:25;4.50;;;4.10;;
11016;SDS011;54687;50.800;6.772;2023-02-28T04:34:52;4.67;;;3.90;;
11016;SDS011;54687;50.800;6.772;2023-02-28T04:37:18;4.57;;;4.17;;
11016;SDS011;54687;50.800;6.772;2023-02-28T04:39:45;5.47;;;4.00;;
11016;SDS011;54687;50.800;6.772;2023-02-28T04:42:13;3.90;;;3.60;;
11016;SDS011;54687;50.800;6.772;2023-02-28T04:44:40;4.23;;;3.57;;
11016;SDS011;54687;50.800;6.772;2023-02-28T04:47:06;4.50;;;3.53;;
11016;SDS011;54687;50.800;6.772;2023-02-28T04:49:33;4.13;;;3.73;;
11016;SDS011;54687;50.800;6.772;2023-02-28T04:51:59;6.10;;;4.27;;
11016;SDS011;54687;50.800;6.772;2023-02-28T04:54:27;5.00;;;3.60;;
11016;SDS011;54687;50.800;6.772;2023-02-28T04:56:54;5.03;;;3.63;;
11016;SDS011;54687;50.800;6.772;2023-02-28T04:59:22;3.90;;;3.60;;
11016;SDS011;54687;50.800;6.772;2023-02-28T05:01:48;3.73;;;3.23;;
11016;SDS011;54687;50.800;6.772;2023-02-28T05:04:15;3.53;;;3.23;;
11016;SDS011;54687;50.800;6.772;2023-02-28T05:06:42;3.50;;;3.20;;
11016;SDS011;54687;50.800;6.772;2023-02-28T05:09:09;4.17;;;3.50;;
11016;SDS011;54687;50.800;6.772;2023-02-28T05:11:37;4.13;;;3.63;;
11016;SDS011;54687;50.800;6.772;2023-02-28T05:14:05;4.80;;;3.53;;
11016;SDS011;54687;50.800;6.772;2023-02-28T05:16:33;3.50;;;3.17;;
11016;SDS011;54687;50.800;6.772;2023-02-28T05:19:00;3.50;;;3.20;;
11016;SDS011;54687;50.800;6.772;2023-02-28T05:21:28;4.13;;;3.60;;
11016;SDS011;54687;50.800;6.772;2023-02-28T05:23:56;5.40;;;4.43;;
11016;SDS011;54687;50.800;6.772;2023-02-28T05:26:23;4.50;;;3.50;;
11016;SDS011;54687;50.800;6.772;2023-02-28T05:28:51;4.03;;;3.43;;
11016;SDS011;54687;50.800;6.772;2023-02-28T05:31:17;4.00;;;3.60;;
11016;SDS011;54687;50.800;6.772;2023-02-28T05:33:46;4.00;;;3.60;;
11016;SDS011;54687;50.800;6.772;2023-02-28T05:36:12;4.20;;;3.50;;
11016;SDS011;54687;50.800;6.772;2023-02-28T05:38:39;4.00;;;3.47;;
11016;SDS011;54687;50.800;6.772;2023-02-28T05:41:06;3.77;;;3.37;;
11016;SDS011;54687;50.800;6.772;2023-02-28T05:43:33;3.53;;;3.23;;
11016;SDS011;54687;50.800;6.772;2023-02-28T05:46:01;4.73;;;3.53;;
11016;SDS011;54687;50.800;6.772;2023-02-28T05:48:29;4.13;;;3.70;;
11016;SDS011;54687;50.800;6.772;2023-02-28T05:50:58;4.60;;;3.50;;
11016;SDS011;54687;50.800;6.772;2023-02-28T05:53:24;4.30;;;3.40;;
11016;SDS011;54687;50.800;6.772;2023-02-28T05:55:51;5.93;;;3.90;;
11016;SDS011;54687;50.800;6.772;2023-02-28T05:58:18;4.13;;;3.73;;
11016;SDS011;54687;50.800;6.772;2023-02-28T06:00:44;4.63;;;3.50;;
11016;SDS011;54687;50.800;6.772;2023-02-28T06:03:11;7.07;;;3.90;;
11016;SDS011;54687;50.800;6.772;2023-02-28T06:05:38;6.40;;;3.90;;
11016;SDS011;54687;50.800;6.772;2023-02-28T06:08:06;5.50;;;4.23;;
11016;SDS011;54687;50.800;6.772;2023-02-28T06:10:33;6.53;;;4.57;;
11016;SDS011;54687;50.800;6.772;2023-02-28T06:13:00;4.60;;;4.20;;
11016;SDS011;54687;50.800;6.772;2023-02-28T06:15:27;5.77;;;4.80;;
11016;SDS011;54687;50.800;6.772;2023-02-28T06:17:55;4.43;;;4.03;;
11016;SDS011;54687;50.800;6.772;2023-02-28T06:20:22;5.33;;;4.27;;
11016;SDS011;54687;50.800;6.772;2023-02-28T06:22:49;7.17;;;4.30;;
11016;SDS011;54687;50.800;6.772;2023-02-28T06:25:18;5.13;;;3.73;;
11016;SDS011;54687;50.800;6.772;2023-02-28T06:27:45;5.00;;;4.60;;
11016;SDS011;54687;50.800;6.772;2023-02-28T06:30:11;4.83;;;4.43;;
11016;SDS011;54687;50.800;6.772;2023-02-28T06:32:38;9.43;;;4.80;;
11016;SDS011;54687;50.800;6.772;2023-02-28T06:35:05;5.27;;;4.37;;
11016;SDS011;54687;50.800;6.772;2023-02-28T06:37:32;5.40;;;4.90;;
11016;SDS011;54687;50.800;6.772;2023-02-28T06:39:59;4.70;;;4.30;;
11016;SDS011;54687;50.800;6.772;2023-02-28T06:42:27;4.87;;;4.40;;
11016;SDS011;54687;50.800;6.772;2023-02-28T06:44:55;5.53;;;4.73;;
11016;SDS011;54687;50.800;6.772;2023-02-28T06:47:22;5.57;;;4.60;;
11016;SDS011;54687;50.800;6.772;2023-02-28T06:49:49;7.37;;;4.67;;
11016;SDS011;54687;50.800;6.772;2023-02-28T06:52:16;6.03;;;4.77;;
11016;SDS011;54687;50.800;6.772;2023-02-28T06:54:42;9.10;;;4.57;;
11016;SDS011;54687;50.800;6.772;2023-02-28T06:57:09;4.13;;;3.77;;
11016;SDS011;54687;50.800;6.772;2023-02-28T06:59:37;4.80;;;4.40;;
11016;SDS011;54687;50.800;6.772;2023-02-28T07:02:03;5.53;;;4.20;;
11016;SDS011;54687;50.800;6.772;2023-02-28T07:04:32;4.20;;;3.80;;
11016;SDS011;54687;50.800;6.772;2023-02-28T07:06:58;5.27;;;3.60;;
11016;SDS011;54687;50.800;6.772;2023-02-28T07:09:26;5.03;;;4.23;;
11016;SDS011;54687;50.800;6.772;2023-02-28T07:11:56;5.97;;;5.23;;
11016;SDS011;54687;50.800;6.772;2023-02-28T07:14:22;7.47;;;4.70;;
11016;SDS011;54687;50.800;6.772;2023-02-28T07:16:50;4.73;;;4.23;;
11016;SDS011;54687;50.800;6.772;2023-02-28T07:19:17;4.10;;;3.80;;
11016;SDS011;54687;50.800;6.772;2023-02-28T07:21:43;7.30;;;4.03;;
11016;SDS011;54687;50.800;6.772;2023-02-28T07:24:10;5.00;;;4.50;;
11016;SDS011;54687;50.800;6.772;2023-02-28T07:26:36;4.80;;;3.90;;
11016;SDS011;54687;50.800;6.772;2023-02-28T07:29:03;3.53;;;3.17;;
11016;SDS011;54687;50.800;6.772;2023-02-28T07:31:30;3.90;;;3.40;;
11016;SDS011;54687;50.800;6.772;2023-02-28T07:33:58;3.40;;;3.10;;
11016;SDS011;54687;50.800;6.772;2023-02-28T07:36:24;4.67;;;3.80;;
11016;SDS011;54687;50.800;6.772;2023-02-28T07:38:51;6.30;;;3.50;;
11016;SDS011;54687;50.800;6.772;2023-02-28T07:41:18;5.23;;;3.43;;
11016;SDS011;54687;50.800;6.772;2023-02-28T07:43:48;5.10;;;4.03;;
11016;SDS011;54687;50.800;6.772;2023-02-28T07:46:15;4.60;;;4.07;;
11016;SDS011;54687;50.800;6.772;2023-02-28T07:48:43;4.30;;;3.90;;
11016;SDS011;54687;50.800;6.772;2023-02-28T07:51:11;4.33;;;3.63;;
11016;SDS011;54687;50.800;6.772;2023-02-28T07:53:38;4.33;;;3.87;;
11016;SDS011;54687;50.800;6.772;2023-02-28T07:56:05;3.43;;;3.13;;
11016;SDS011;54687;50.800;6.772;2023-02-28T07:58:32;5.17;;;3.40;;
11016;SDS011;54687;50.800;6.772;2023-02-28T08:01:04;4.67;;;4.20;;
11016;SDS011;54687;50.800;6.772;2023-02-28T08:03:32;4.73;;;3.63;;
11016;SDS011;54687;50.800;6.772;2023-02-28T08:05:59;4.53;;;3.20;;
11016;SDS011;54687;50.800;6.772;2023-02-28T08:08:29;4.07;;;3.67;;
11016;SDS011;54687;50.800;6.772;2023-02-28T08:10:57;4.30;;;3.90;;
11016;SDS011;54687;50.800;6.772;2023-02-28T08:13:24;4.07;;;3.67;;
11016;SDS011;54687;50.800;6.772;2023-02-28T08:15:52;4.53;;;3.50;;
11016;SDS011;54687;50.800;6.772;2023-02-28T08:18:18;5.60;;;3.23;;
11016;SDS011;54687;50.800;6.772;2023-02-28T08:20:45;5.57;;;4.10;;
11016;SDS011;54687;50.800;6.772;2023-02-28T08:23:11;4.60;;;3.80;;
11016;SDS011;54687;50.800;6.772;2023-02-28T08:25:39;5.87;;;3.90;;
11016;SDS011;54687;50.800;6.772;2023-02-28T08:28:06;4.90;;;3.83;;
11016;SDS011;54687;50.800;6.772;2023-02-28T08:30:32;5.30;;;4.03;;
11016;SDS011;54687;50.800;6.772;2023-02-28T08:32:59;4.67;;;3.90;;
11016;SDS011;54687;50.800;6.772;2023-02-28T08:35:26;4.63;;;4.07;;
11016;SDS011;54687;50.800;6.772;2023-02-28T08:37:53;4.97;;;3.73;;
11016;SDS011;54687;50.800;6.772;2023-02-28T08:40:20;7.67;;;3.57;;
11016;SDS011;54687;50.800;6.772;2023-02-28T08:42:47;3.60;;;3.00;;
11016;SDS011;54687;50.800;6.772;2023-02-28T08:45:14;3.90;;;2.63;;
11016;SDS011;54687;50.800;6.772;2023-02-28T08:47:41;8.43;;;3.13;;
11016;SDS011;54687;50.800;6.772;2023-02-28T08:50:08;3.70;;;3.30;;
11016;SDS011;54687;50.800;6.772;2023-02-28T08:52:37;3.90;;;3.23;;
11016;SDS011;54687;50.800;6.772;2023-02-28T08:55:04;4.60;;;2.50;;
11016;SDS011;54687;50.800;6.772;2023-02-28T08:57:32;5.50;;;3.20;;
11016;SDS011;54687;50.800;6.772;2023-02-28T09:00:00;2.80;;;2.60;;
11016;SDS011;54687;50.800;6.772;2023-02-28T09:02:29;3.90;;;2.80;;
11016;SDS011;54687;50.800;6.772;2023-02-28T09:04:56;2.60;;;2.37;;
11016;SDS011;54687;50.800;6.772;2023-02-28T09:07:23;2.63;;;2.43;;
11016;SDS011;54687;50.800;6.772;2023-02-28T09:09:50;3.00;;;2.70;;
11016;SDS011;54687;50.800;6.772;2023-02-28T09:12:20;3.50;;;2.97;;
11016;SDS011;54687;50.800;6.772;2023-02-28T09:14:46;2.50;;;2.30;;
11016;SDS011;54687;50.800;6.772;2023-02-28T09:17:14;2.80;;;2.40;;
11016;SDS011;54687;50.800;6.772;2023-02-28T09:19:41;4.70;;;3.03;;
11016;SDS011;54687;50.800;6.772;2023-02-28T09:22:08;4.47;;;2.63;;
11016;SDS011;54687;50.800;6.772;2023-02-28T09:24:35;3.20;;;2.63;;
11016;SDS011;54687;50.800;6.772;2023-02-28T09:27:02;3.20;;;2.90;;
11016;SDS011;54687;50.800;6.772;2023-02-28T09:29:28;2.70;;;2.50;;
11016;SDS011;54687;50.800;6.772;2023-02-28T09:31:55;2.90;;;2.67;;
11016;SDS011;54687;50.800;6.772;2023-02-28T09:34:24;3.30;;;2.60;;
11016;SDS011;54687;50.800;6.772;2023-02-28T09:36:52;4.27;;;2.80;;
11016;SDS011;54687;50.800;6.772;2023-02-28T09:39:19;3.13;;;2.83;;
11016;SDS011;54687;50.800;6.772;2023-02-28T09:41:47;3.60;;;3.10;;
11016;SDS011;54687;50.800;6.772;2023-02-28T09:44:17;3.83;;;2.50;;
11016;SDS011;54687;50.800;6.772;2023-02-28T09:46:51;7.30;;;3.30;;
11016;SDS011;54687;50.800;6.772;2023-02-28T09:49:22;2.83;;;2.57;;
11016;SDS011;54687;50.800;6.772;2023-02-28T09:51:56;4.30;;;2.43;;
11016;SDS011;54687;50.800;6.772;2023-02-28T09:54:27;2.90;;;2.60;;
11016;SDS011;54687;50.800;6.772;2023-02-28T09:56:57;4.73;;;2.60;;
11016;SDS011;54687;50.800;6.772;2023-02-28T09:59:32;3.00;;;2.40;;
11016;SDS011;54687;50.800;6.772;2023-02-28T10:02:15;5.40;;;2.67;;
11016;SDS011;54687;50.800;6.772;2023-02-28T10:04:51;3.33;;;2.50;;
11016;SDS011;54687;50.800;6.772;2023-02-28T10:07:28;4.07;;;2.50;;
11016;SDS011;54687;50.800;6.772;2023-02-28T10:10:07;3.77;;;3.00;;
11016;SDS011;54687;50.800;6.772;2023-02-28T10:12:46;4.67;;;3.30;;
11016;SDS011;54687;50.800;6.772;2023-02-28T10:15:14;5.33;;;2.50;;
11016;SDS011;54687;50.800;6.772;2023-02-28T10:17:42;3.17;;;2.70;;
11016;SDS011;54687;50.800;6.772;2023-02-28T10:20:15;3.47;;;2.97;;
11016;SDS011;54687;50.800;6.772;2023-02-28T10:22:50;3.03;;;2.63;;
11016;SDS011;54687;50.800;6.772;2023-02-28T10:25:22;3.43;;;3.13;;
11016;SDS011;54687;50.800;6.772;2023-02-28T10:27:50;3.10;;;2.80;;
11016;SDS011;54687;50.800;6.772;2023-02-28T10:30:21;2.80;;;2.50;;
11016;SDS011;54687;50.800;6.772;2023-02-28T10:32:49;2.90;;;2.53;;
11016;SDS011;54687;50.800;6.772;2023-02-28T10:35:20;5.17;;;3.07;;
11016;SDS011;54687;50.800;6.772;2023-02-28T10:37:50;3.20;;;2.90;;
11016;SDS011;54687;50.800;6.772;2023-02-28T10:40:28;2.90;;;2.70;;
11016;SDS011;54687;50.800;6.772;2023-02-28T10:42:59;3.60;;;3.10;;
11016;SDS011;54687;50.800;6.772;2023-02-28T10:45:27;3.28;;;2.75;;
11016;SDS011;54687;50.800;6.772;2023-02-28T10:47:57;3.40;;;2.73;;
11016;SDS011;54687;50.800;6.772;2023-02-28T10:50:31;3.00;;;2.70;;
11016;SDS011;54687;50.800;6.772;2023-02-28T10:53:13;3.43;;;3.13;;
11016;SDS011;54687;50.800;6.772;2023-02-28T10:55:55;4.57;;;2.75;;
11016;SDS011;54687;50.800;6.772;2023-02-28T10:58:22;4.85;;;4.00;;
11016;SDS011;54687;50.800;6.772;2023-02-28T11:00:50;3.42;;;3.13;;
11016;SDS011;54687;50.800;6.772;2023-02-28T11:03:25;2.97;;;2.78;;
11016;SDS011;54687;50.800;6.772;2023-02-28T11:06:03;3.38;;;2.85;;
11016;SDS011;54687;50.800;6.772;2023-02-28T11:08:31;3.10;;;2.75;;
11016;SDS011;54687;50.800;6.772;2023-02-28T11:11:01;3.08;;;2.78;;
11016;SDS011;54687;50.800;6.772;2023-02-28T11:13:32;3.35;;;3.05;;
11016;SDS011;54687;50.800;6.772;2023-02-28T11:16:00;2.90;;;2.70;;
11016;SDS011;54687;50.800;6.772;2023-02-28T11:18:30;3.72;;;3.33;;
11016;SDS011;54687;50.800;6.772;2023-02-28T11:21:08;3.75;;;3.00;;
11016;SDS011;54687;50.800;6.772;2023-02-28T11:23:41;3.72;;;2.70;;
11016;SDS011;54687;50.800;6.772;2023-02-28T11:26:08;3.00;;;2.65;;
11016;SDS011;54687;50.800;6.772;2023-02-28T11:28:37;2.90;;;2.60;;
11016;SDS011;54687;50.800;6.772;2023-02-28T11:31:14;3.08;;;2.50;;
11016;SDS011;54687;50.800;6.772;2023-02-28T11:33:45;2.72;;;2.45;;
11016;SDS011;54687;50.800;6.772;2023-02-28T11:36:18;3.97;;;3.00;;
11016;SDS011;54687;50.800;6.772;2023-02-28T11:38:46;2.58;;;2.38;;
11016;SDS011;54687;50.800;6.772;2023-02-28T11:41:20;3.08;;;2.75;;
11016;SDS011;54687;50.800;6.772;2023-02-28T11:44:04;4.07;;;3.40;;
11016;SDS011;54687;50.800;6.772;2023-02-28T11:46:38;3.10;;;2.80;;
11016;SDS011;54687;50.800;6.772;2023-02-28T11:49:13;3.40;;;3.05;;
11016;SDS011;54687;50.800;6.772;2023-02-28T11:51:56;2.75;;;2.55;;
11016;SDS011;54687;50.800;6.772;2023-02-28T11:54:34;3.25;;;2.88;;
11016;SDS011;54687;50.800;6.772;2023-02-28T11:57:17;4.07;;;2.95;;
11016;SDS011;54687;50.800;6.772;2023-02-28T11:59:56;4.68;;;2.50;;
11016;SDS011;54687;50.800;6.772;2023-02-28T12:02:32;3.83;;;2.67;;
11016;SDS011;54687;50.800;6.772;2023-02-28T12:05:11;3.00;;;2.70;;
11016;SDS011;54687;50.800;6.772;2023-02-28T12:07:49;6.20;;;3.40;;
11016;SDS011;54687;50.800;6.772;2023-02-28T12:10:23;5.10;;;3.00;;
11016;SDS011;54687;50.800;6.772;2023-02-28T12:12:55;3.00;;;2.70;;
11016;SDS011;54687;50.800;6.772;2023-02-28T12:15:38;3.15;;;2.63;;
11016;SDS011;54687;50.800;6.772;2023-02-28T12:18:23;3.38;;;2.50;;
11016;SDS011;54687;50.800;6.772;2023-02-28T12:21:00;2.53;;;2.33;;
11016;SDS011;54687;50.800;6.772;2023-02-28T12:23:43;3.03;;;2.72;;
11016;SDS011;54687;50.800;6.772;2023-02-28T12:26:22;3.55;;;2.75;;
11016;SDS011;54687;50.800;6.772;2023-02-28T12:28:59;3.20;;;2.90;;
11016;SDS011;54687;50.800;6.772;2023-02-28T12:31:32;3.72;;;3.08;;
11016;SDS011;54687;50.800;6.772;2023-02-28T12:34:03;4.53;;;3.00;;
11016;SDS011;54687;50.800;6.772;2023-02-28T12:36:34;3.30;;;2.53;;
11016;SDS011;54687;50.800;6.772;2023-02-28T12:39:05;2.90;;;2.70;;
11016;SDS011;54687;50.800;6.772;2023-02-28T12:41:39;2.80;;;2.60;;
11016;SDS011;54687;50.800;6.772;2023-02-28T12:44:09;5.05;;;2.88;;
11016;SDS011;54687;50.800;6.772;2023-02-28T12:46:41;3.28;;;2.97;;
11016;SDS011;54687;50.800;6.772;2023-02-28T12:49:10;4.78;;;2.95;;
11016;SDS011;54687;50.800;6.772;2023-02-28T12:51:42;3.25;;;2.70;;
11016;SDS011;54687;50.800;6.772;2023-02-28T12:54:14;3.10;;;2.85;;
11016;SDS011;54687;50.800;6.772;2023-02-28T12:56:47;4.47;;;3.00;;
11016;SDS011;54687;50.800;6.772;2023-02-28T12:59:23;7.35;;;3.67;;
11016;SDS011;54687;50.800;6.772;2023-02-28T13:01:57;4.28;;;3.17;;
11016;SDS011;54687;50.800;6.772;2023-02-28T13:07:32;3.22;;;2.92;;
11016;SDS011;54687;50.800;6.772;2023-02-28T13:10:17;4.50;;;2.70;;
11016;SDS011;54687;50.800;6.772;2023-02-28T13:12:48;3.20;;;2.90;;
11016;SDS011;54687;50.800;6.772;2023-02-28T13:15:17;2.95;;;2.67;;
11016;SDS011;54687;50.800;6.772;2023-02-28T13:17:49;4.72;;;3.10;;
11016;SDS011;54687;50.800;6.772;2023-02-28T13:20:18;5.10;;;3.05;;
11016;SDS011;54687;50.800;6.772;2023-02-28T13:22:47;5.20;;;3.40;;
11016;SDS011;54687;50.800;6.772;2023-02-28T13:34:40;3.30;;;2.95;;
11016;SDS011;54687;50.800;6.772;2023-02-28T13:40:27;3.50;;;3.15;;
11016;SDS011;54687;50.800;6.772;2023-02-28T13:43:03;3.17;;;2.95;;
11016;SDS011;54687;50.800;6.772;2023-02-28T13:45:34;2.83;;;2.63;;
11016;SDS011;54687;50.800;6.772;2023-02-28T13:48:03;4.65;;;3.08;;
11016;SDS011;54687;50.800;6.772;2023-02-28T13:50:41;3.53;;;3.22;;
11016;SDS011;54687;50.800;6.772;2023-02-28T13:56:01;3.70;;;3.40;;
11016;SDS011;54687;50.800;6.772;2023-02-28T13:58:40;3.45;;;3.15;;
11016;SDS011;54687;50.800;6.772;2023-02-28T14:01:20;3.95;;;3.50;;
11016;SDS011;54687;50.800;6.772;2023-02-28T14:03:58;3.88;;;3.35;;
11016;SDS011;54687;50.800;6.772;2023-02-28T14:06:46;5.05;;;3.30;;
11016;SDS011;54687;50.800;6.772;2023-02-28T14:09:19;3.58;;;3.28;;
11016;SDS011;54687;50.800;6.772;2023-02-28T14:11:49;3.20;;;2.90;;
11016;SDS011;54687;50.800;6.772;2023-02-28T14:17:23;3.50;;;3.20;;
11016;SDS011;54687;50.800;6.772;2023-02-28T14:19:51;3.47;;;3.17;;
11016;SDS011;54687;50.800;6.772;2023-02-28T14:22:21;3.78;;;3.47;;
11016;SDS011;54687;50.800;6.772;2023-02-28T14:25:09;4.25;;;3.85;;
11016;SDS011;54687;50.800;6.772;2023-02-28T14:27:45;4.10;;;3.70;;
11016;SDS011;54687;50.800;6.772;2023-02-28T14:30:37;4.30;;;3.72;;
11016;SDS011;54687;50.800;6.772;2023-02-28T14:33:19;4.03;;;3.60;;
11016;SDS011;54687;50.800;6.772;2023-02-28T14:36:03;4.18;;;3.78;;
11016;SDS011;54687;50.800;6.772;2023-02-28T14:38:35;4.40;;;4.00;;
11016;SDS011;54687;50.800;6.772;2023-02-28T14:41:06;5.22;;;4.38;;
11016;SDS011;54687;50.800;6.772;2023-02-28T14:43:47;4.63;;;3.95;;
11016;SDS011;54687;50.800;6.772;2023-02-28T14:46:18;3.80;;;3.50;;
11016;SDS011;54687;50.800;6.772;2023-02-28T14:48:45;6.53;;;3.83;;
11016;SDS011;54687;50.800;6.772;2023-02-28T14:51:13;4.53;;;4.05;;
11016;SDS011;54687;50.800;6.772;2023-02-28T14:53:47;3.67;;;3.35;;
11016;SDS011;54687;50.800;6.772;2023-02-28T14:56:19;4.28;;;3.65;;
11016;SDS011;54687;50.800;6.772;2023-02-28T14:58:50;4.28;;;3.88;;
11016;SDS011;54687;50.800;6.772;2023-02-28T15:01:20;4.93;;;3.88;;
11016;SDS011;54687;50.800;6.772;2023-02-28T15:03:56;4.38;;;3.97;;
11016;SDS011;54687;50.800;6.772;2023-02-28T15:06:24;4.50;;;4.10;;
11016;SDS011;54687;50.800;6.772;2023-02-28T15:09:06;5.55;;;4.20;;
11016;SDS011;54687;50.800;6.772;2023-02-28T15:11:34;4.20;;;3.80;;
11016;SDS011;54687;50.800;6.772;2023-02-28T15:14:03;5.03;;;4.47;;
11016;SDS011;54687;50.800;6.772;2023-02-28T15:16:32;4.15;;;3.75;;
11016;SDS011;54687;50.800;6.772;2023-02-28T15:19:04;5.55;;;3.83;;
11016;SDS011;54687;50.800;6.772;2023-02-28T15:21:34;4.43;;;4.03;;
11016;SDS011;54687;50.800;6.772;2023-02-28T15:24:04;4.30;;;3.90;;
11016;SDS011;54687;50.800;6.772;2023-02-28T15:26:38;4.07;;;3.70;;
11016;SDS011;54687;50.800;6.772;2023-02-28T15:29:08;4.45;;;3.78;;
11016;SDS011;54687;50.800;6.772;2023-02-28T15:31:43;5.78;;;3.97;;